Flight Track Log - Related Links

Times and Time Zones

All times are in EDT time to prevent confusion due to time zone crossing. See the CTL13 flight status page for this flight to view local times or setup timezone preferences in your user account.

Time Position Orientation Groundspeed Altitude Reporting Facility
EDT Latitude Longitude Course Direction KTS MPH feet Rate Location/Type
Tue 11:14:00 PM 41.8000 -87.7000 93° East 117 135 2,300  Level Chicago TRACON
Tue 11:15:00 PM 41.8000 -87.6500 90° East 139 160 3,000 350 Climbing Chicago TRACON
Tue 11:16:00 PM 41.8000 -87.5833 90° East 170 196 3,000 200 Level Chicago TRACON
Tue 11:17:00 PM 41.8000 -87.5333 90° East 164 189 3,400 793 Climbing Chicago TRACON
Tue 11:18:01 PM 41.8000 -87.4833 90° East 130 150 4,600 793 Climbing Chicago TRACON
Tue 11:19:00 PM 41.7802 -87.3976 93° East  Level FlightAware Approximate
Tue 11:19:01 PM 41.8000 -87.4333 90° East 150 173 5,000  Level Chicago TRACON
Tue 11:20:15 PM 41.7856 -87.3681 107° East 149 171 5,000 44 Level Chicago Center
Tue 11:21:16 PM 41.7703 -87.3033 108° East 173 199 5,100 492 Climbing Chicago Center
Tue 11:22:17 PM 41.7575 -87.2519 108° East 152 175 6,000 443 Climbing Chicago Center
Tue 11:23:18 PM 41.7472 -87.1800 101° East 164 189 6,000 49 Level Chicago Center
Tue 11:24:19 PM 41.7531 -87.1147 83° East 175 201 6,100 49 Climbing Chicago Center
Tue 11:25:20 PM 41.7764 -87.0625 59° Northeast 179 206 6,100 -49 Level Chicago Center
Tue 11:26:21 PM 41.8117 -87.0194 42° Northeast 173 199 6,000 148 Descending Chicago Center
Tue 11:27:22 PM 41.8447 -86.9728 46° Northeast 174 200 6,400 492 Climbing Chicago Center
Tue 11:28:23 PM 41.8719 -86.9311 49° Northeast 156 180 7,000 295 Climbing Chicago Center
Tue 11:29:24 PM 41.9033 -86.8883 45° Northeast 161 185 7,000  Level Chicago Center
Tue 11:30:24 PM 41.9353 -86.8444 46° Northeast 164 189 7,000  Level Chicago Center
Tue 11:31:25 PM 41.9650 -86.8028 46° Northeast 158 182 7,000  Level Chicago Center
Tue 11:32:26 PM 42.0036 -86.7544 43° Northeast 160 184 7,000  Level Chicago Center
Tue 11:33:27 PM 42.0292 -86.7192 46° Northeast 160 184 7,000  Level Chicago Center
Tue 11:34:28 PM 42.0581 -86.6789 46° Northeast 153 176 7,000  Level Chicago Center
Tue 11:35:29 PM 42.0950 -86.6283 45° Northeast 156 180 7,000  Level Chicago Center
Tue 11:36:30 PM 42.1250 -86.5878 45° Northeast 154 177 7,000  Level Chicago Center
Tue 11:37:31 PM 42.1561 -86.5461 45° Northeast 157 181 7,000  Level Chicago Center
Tue 11:38:31 PM 42.1858 -86.5044 46° Northeast 155 178 7,000  Level Chicago Center
Tue 11:39:32 PM 42.2175 -86.4608 46° Northeast 160 184 7,000  Level Chicago Center
Tue 11:40:33 PM 42.2475 -86.4186 46° Northeast 157 181 7,000 -49 Level Chicago Center
Tue 11:41:34 PM 42.2778 -86.3761 46° Northeast 157 181 6,900  Descending Chicago Center
Tue 11:42:35 PM 42.3067 -86.3361 46° Northeast 158 182 7,000 50 Climbing Chicago Center
Tue 11:43:35 PM 42.3372 -86.2961 44° Northeast 156 180 7,000  Level Chicago Center
Tue 11:44:36 PM 42.3683 -86.2539 45° Northeast 157 181 7,000  Level Chicago Center
Tue 11:45:37 PM 42.3992 -86.2114 46° Northeast 159 183 7,000  Level Chicago Center
Tue 11:46:38 PM 42.4358 -86.1600 46° Northeast 159 183 7,000  Level Chicago Center
Tue 11:47:38 PM 42.4678 -86.1167 45° Northeast 162 186 7,000  Level Chicago Center
Tue 11:48:39 PM 42.4992 -86.0739 45° Northeast 162 186 7,000  Level Chicago Center
Tue 11:49:40 PM 42.5317 -86.0319 44° Northeast 161 185 7,000  Level Chicago Center
Tue 11:50:41 PM 42.5608 -85.9875 48° Northeast 160 184 7,000  Level Chicago Center
Tue 11:51:41 PM 42.5919 -85.9436 46° Northeast 160 184 7,000  Level Chicago Center
Tue 11:52:42 PM 42.6228 -85.8986 47° Northeast 163 188 7,000  Level Chicago Center
Tue 11:53:43 PM 42.6531 -85.8561 46° Northeast 160 184 7,000 -595 Level Chicago Center
Tue 11:54:43 PM 42.6869 -85.8108 44° Northeast 166 191 5,800 -1,289 Descending Chicago Center
Tue 11:55:44 PM 42.7244 -85.7625 43° Northeast 180 207 4,400 -1,328 Descending Chicago Center
Tue 11:56:45 PM 42.7642 -85.7142 42° Northeast 190 219 3,100 -1,041 Descending Chicago Center
Tue 11:57:45 PM 42.7978 -85.6631 48° Northeast 186 214 2,300 -595 Descending Chicago Center
Tue 11:58:46 PM 42.8275 -85.6189 47° Northeast 174 200 1,900 -341 Descending Chicago Center
Tue 11:59:48 PM 42.8606 -85.5756 44° Northeast 154 177 1,600 -443 Descending Chicago Center
Wed 12:00:48 AM 42.8786 -85.5481 48° Northeast 140 161 1,000 -600 Descending Chicago Center
Wed 12:02:00 AM 42.8808 -85.5228 56° Northeast  Level Estimated
Wed 12:09:00 AM 42.8808 -85.5228 56° Northeast  Level Estimated

Login

Don't have an account? Register now (free) for customized features, flight alerts, and more!